sensor_id;sensor_type;location;lat;lon;timestamp;temperature;humidity
76099;DHT22;64828;49.956;8.636;2023-08-01T00:00:02;16.60;92.80
76099;DHT22;64828;49.956;8.636;2023-08-01T00:00:18;16.60;92.80
76099;DHT22;64828;49.956;8.636;2023-08-01T00:00:34;16.60;92.80
76099;DHT22;64828;49.956;8.636;2023-08-01T00:00:49;16.60;92.80
76099;DHT22;64828;49.956;8.636;2023-08-01T00:01:05;16.60;92.80
76099;DHT22;64828;49.956;8.636;2023-08-01T00:01:21;16.60;92.90
76099;DHT22;64828;49.956;8.636;2023-08-01T00:01:36;16.60;92.90
76099;DHT22;64828;49.956;8.636;2023-08-01T00:01:52;16.60;92.90
76099;DHT22;64828;49.956;8.636;2023-08-01T00:02:07;16.60;92.80
76099;DHT22;64828;49.956;8.636;2023-08-01T00:02:23;16.60;92.80
76099;DHT22;64828;49.956;8.636;2023-08-01T00:02:39;16.60;92.90
76099;DHT22;64828;49.956;8.636;2023-08-01T00:02:54;16.60;92.80
76099;DHT22;64828;49.956;8.636;2023-08-01T00:03:10;16.60;92.80
76099;DHT22;64828;49.956;8.636;2023-08-01T00:03:26;16.60;92.80
76099;DHT22;64828;49.956;8.636;2023-08-01T00:03:41;16.60;92.80
76099;DHT22;64828;49.956;8.636;2023-08-01T00:03:56;16.60;92.80
76099;DHT22;64828;49.956;8.636;2023-08-01T00:04:12;16.60;92.80
76099;DHT22;64828;49.956;8.636;2023-08-01T00:04:27;16.60;92.80
76099;DHT22;64828;49.956;8.636;2023-08-01T00:04:43;16.60;92.80
76099;DHT22;64828;49.956;8.636;2023-08-01T00:04:58;16.60;92.80
76099;DHT22;64828;49.956;8.636;2023-08-01T00:05:14;16.60;92.80
76099;DHT22;64828;49.956;8.636;2023-08-01T00:05:29;16.60;92.80
76099;DHT22;64828;49.956;8.636;2023-08-01T00:05:45;16.60;92.80
76099;DHT22;64828;49.956;8.636;2023-08-01T00:06:00;16.60;92.80
76099;DHT22;64828;49.956;8.636;2023-08-01T00:06:16;16.60;92.80
76099;DHT22;64828;49.956;8.636;2023-08-01T00:06:31;16.60;92.80
76099;DHT22;64828;49.956;8.636;2023-08-01T00:06:47;16.50;92.80
76099;DHT22;64828;49.956;8.636;2023-08-01T00:07:02;16.60;92.90
76099;DHT22;64828;49.956;8.636;2023-08-01T00:07:18;16.60;92.90
76099;DHT22;64828;49.956;8.636;2023-08-01T00:07:33;16.60;92.90
76099;DHT22;64828;49.956;8.636;2023-08-01T00:07:49;16.60;92.90
76099;DHT22;64828;49.956;8.636;2023-08-01T00:08:04;16.60;92.90
76099;DHT22;64828;49.956;8.636;2023-08-01T00:08:20;16.50;92.90
76099;DHT22;64828;49.956;8.636;2023-08-01T00:08:36;16.50;92.90
76099;DHT22;64828;49.956;8.636;2023-08-01T00:08:51;16.60;93.00
76099;DHT22;64828;49.956;8.636;2023-08-01T00:09:07;16.50;92.90
76099;DHT22;64828;49.956;8.636;2023-08-01T00:09:22;16.50;92.90
76099;DHT22;64828;49.956;8.636;2023-08-01T00:09:38;16.60;93.00
76099;DHT22;64828;49.956;8.636;2023-08-01T00:09:53;16.50;93.00
76099;DHT22;64828;49.956;8.636;2023-08-01T00:10:09;16.50;93.00
76099;DHT22;64828;49.956;8.636;2023-08-01T00:10:24;16.60;93.00
76099;DHT22;64828;49.956;8.636;2023-08-01T00:10:40;16.50;93.00
76099;DHT22;64828;49.956;8.636;2023-08-01T00:10:56;16.50;93.00
76099;DHT22;64828;49.956;8.636;2023-08-01T00:11:11;16.50;93.00
76099;DHT22;64828;49.956;8.636;2023-08-01T00:11:29;16.50;92.90
76099;DHT22;64828;49.956;8.636;2023-08-01T00:11:44;16.50;92.90
76099;DHT22;64828;49.956;8.636;2023-08-01T00:12:00;16.50;92.90
76099;DHT22;64828;49.956;8.636;2023-08-01T00:12:15;16.50;92.70
76099;DHT22;64828;49.956;8.636;2023-08-01T00:12:31;16.50;92.60
76099;DHT22;64828;49.956;8.636;2023-08-01T00:12:46;16.50;92.40
76099;DHT22;64828;49.956;8.636;2023-08-01T00:13:02;16.50;92.40
76099;DHT22;64828;49.956;8.636;2023-08-01T00:13:17;16.50;92.40
76099;DHT22;64828;49.956;8.636;2023-08-01T00:13:33;16.60;92.40
76099;DHT22;64828;49.956;8.636;2023-08-01T00:13:48;16.50;92.40
76099;DHT22;64828;49.956;8.636;2023-08-01T00:14:04;16.50;92.40
76099;DHT22;64828;49.956;8.636;2023-08-01T00:14:19;16.50;92.40
76099;DHT22;64828;49.956;8.636;2023-08-01T00:14:36;16.50;92.50
76099;DHT22;64828;49.956;8.636;2023-08-01T00:14:51;16.50;92.40
76099;DHT22;64828;49.956;8.636;2023-08-01T00:15:07;16.50;92.40
76099;DHT22;64828;49.956;8.636;2023-08-01T00:15:23;16.50;92.40
76099;DHT22;64828;49.956;8.636;2023-08-01T00:15:38;16.50;92.40
76099;DHT22;64828;49.956;8.636;2023-08-01T00:15:54;16.50;92.40
76099;DHT22;64828;49.956;8.636;2023-08-01T00:16:10;16.50;92.40
76099;DHT22;64828;49.956;8.636;2023-08-01T00:16:25;16.50;92.40
76099;DHT22;64828;49.956;8.636;2023-08-01T00:16:40;16.50;92.40
76099;DHT22;64828;49.956;8.636;2023-08-01T00:16:56;16.50;92.30
76099;DHT22;64828;49.956;8.636;2023-08-01T00:17:12;16.50;92.30
76099;DHT22;64828;49.956;8.636;2023-08-01T00:17:27;16.50;92.30
76099;DHT22;64828;49.956;8.636;2023-08-01T00:17:43;16.50;92.30
76099;DHT22;64828;49.956;8.636;2023-08-01T00:17:58;16.50;92.30
76099;DHT22;64828;49.956;8.636;2023-08-01T00:18:14;16.50;92.30
76099;DHT22;64828;49.956;8.636;2023-08-01T00:18:29;16.50;92.30
76099;DHT22;64828;49.956;8.636;2023-08-01T00:18:44;16.50;92.30
76099;DHT22;64828;49.956;8.636;2023-08-01T00:19:00;16.60;92.30
76099;DHT22;64828;49.956;8.636;2023-08-01T00:19:15;16.50;92.30
76099;DHT22;64828;49.956;8.636;2023-08-01T00:19:31;16.50;92.20
76099;DHT22;64828;49.956;8.636;2023-08-01T00:19:46;16.50;92.20
76099;DHT22;64828;49.956;8.636;2023-08-01T00:20:03;16.60;92.20
76099;DHT22;64828;49.956;8.636;2023-08-01T00:20:18;16.50;92.20
76099;DHT22;64828;49.956;8.636;2023-08-01T00:20:34;16.60;92.20
76099;DHT22;64828;49.956;8.636;2023-08-01T00:20:52;16.50;92.20
76099;DHT22;64828;49.956;8.636;2023-08-01T00:21:07;16.60;92.20
76099;DHT22;64828;49.956;8.636;2023-08-01T00:21:26;16.60;92.20
76099;DHT22;64828;49.956;8.636;2023-08-01T00:21:42;16.60;92.20
76099;DHT22;64828;49.956;8.636;2023-08-01T00:21:57;16.60;92.20
76099;DHT22;64828;49.956;8.636;2023-08-01T00:22:13;16.60;92.20
76099;DHT22;64828;49.956;8.636;2023-08-01T00:22:28;16.60;92.20
76099;DHT22;64828;49.956;8.636;2023-08-01T00:22:44;16.60;92.20
76099;DHT22;64828;49.956;8.636;2023-08-01T00:22:59;16.60;92.20
76099;DHT22;64828;49.956;8.636;2023-08-01T00:23:15;16.60;92.10
76099;DHT22;64828;49.956;8.636;2023-08-01T00:23:31;16.60;92.10
76099;DHT22;64828;49.956;8.636;2023-08-01T00:23:46;16.60;92.10
76099;DHT22;64828;49.956;8.636;2023-08-01T00:24:02;16.60;92.10
76099;DHT22;64828;49.956;8.636;2023-08-01T00:24:17;16.60;92.10
76099;DHT22;64828;49.956;8.636;2023-08-01T00:24:33;16.60;92.10
76099;DHT22;64828;49.956;8.636;2023-08-01T00:24:48;16.60;92.10
76099;DHT22;64828;49.956;8.636;2023-08-01T00:25:04;16.60;92.10
76099;DHT22;64828;49.956;8.636;2023-08-01T00:25:20;16.60;92.10
76099;DHT22;64828;49.956;8.636;2023-08-01T00:25:35;16.60;92.10
76099;DHT22;64828;49.956;8.636;2023-08-01T00:25:51;16.60;92.10
76099;DHT22;64828;49.956;8.636;2023-08-01T00:26:07;16.60;92.10
76099;DHT22;64828;49.956;8.636;2023-08-01T00:26:22;16.60;92.10
76099;DHT22;64828;49.956;8.636;2023-08-01T00:26:38;16.60;92.10
76099;DHT22;64828;49.956;8.636;2023-08-01T00:26:53;16.60;92.10
76099;DHT22;64828;49.956;8.636;2023-08-01T00:27:12;16.60;92.10
76099;DHT22;64828;49.956;8.636;2023-08-01T00:27:27;16.60;92.10
76099;DHT22;64828;49.956;8.636;2023-08-01T00:27:44;16.60;92.10
76099;DHT22;64828;49.956;8.636;2023-08-01T00:27:59;16.60;92.10
76099;DHT22;64828;49.956;8.636;2023-08-01T00:28:15;16.60;92.10
76099;DHT22;64828;49.956;8.636;2023-08-01T00:28:30;16.60;92.10
76099;DHT22;64828;49.956;8.636;2023-08-01T00:28:46;16.60;92.10
76099;DHT22;64828;49.956;8.636;2023-08-01T00:29:02;16.60;92.00
76099;DHT22;64828;49.956;8.636;2023-08-01T00:29:17;16.60;92.00
76099;DHT22;64828;49.956;8.636;2023-08-01T00:29:33;16.60;92.00
76099;DHT22;64828;49.956;8.636;2023-08-01T00:29:48;16.60;92.00
76099;DHT22;64828;49.956;8.636;2023-08-01T00:30:04;16.60;92.00
76099;DHT22;64828;49.956;8.636;2023-08-01T00:30:20;16.60;92.00
76099;DHT22;64828;49.956;8.636;2023-08-01T00:30:35;16.60;92.00
76099;DHT22;64828;49.956;8.636;2023-08-01T00:30:51;16.60;92.00
76099;DHT22;64828;49.956;8.636;2023-08-01T00:31:16;16.60;92.00
76099;DHT22;64828;49.956;8.636;2023-08-01T00:31:31;16.60;92.00
76099;DHT22;64828;49.956;8.636;2023-08-01T00:31:47;16.60;92.00
76099;DHT22;64828;49.956;8.636;2023-08-01T00:32:02;16.60;92.00
76099;DHT22;64828;49.956;8.636;2023-08-01T00:32:18;16.60;92.00
76099;DHT22;64828;49.956;8.636;2023-08-01T00:32:34;16.60;92.00
76099;DHT22;64828;49.956;8.636;2023-08-01T00:32:50;16.60;92.00
76099;DHT22;64828;49.956;8.636;2023-08-01T00:33:05;16.60;92.00
76099;DHT22;64828;49.956;8.636;2023-08-01T00:33:20;16.60;92.00
76099;DHT22;64828;49.956;8.636;2023-08-01T00:33:36;16.60;92.00
76099;DHT22;64828;49.956;8.636;2023-08-01T00:33:52;16.70;92.00
76099;DHT22;64828;49.956;8.636;2023-08-01T00:34:07;16.60;92.00
76099;DHT22;64828;49.956;8.636;2023-08-01T00:34:23;16.60;91.90
76099;DHT22;64828;49.956;8.636;2023-08-01T00:34:38;16.70;91.90
76099;DHT22;64828;49.956;8.636;2023-08-01T00:34:54;16.70;91.90
76099;DHT22;64828;49.956;8.636;2023-08-01T00:35:09;16.70;91.90
76099;DHT22;64828;49.956;8.636;2023-08-01T00:35:25;16.60;91.80
76099;DHT22;64828;49.956;8.636;2023-08-01T00:35:41;16.70;91.80
76099;DHT22;64828;49.956;8.636;2023-08-01T00:35:56;16.70;91.80
76099;DHT22;64828;49.956;8.636;2023-08-01T00:36:11;16.70;91.80
76099;DHT22;64828;49.956;8.636;2023-08-01T00:36:27;16.70;91.80
76099;DHT22;64828;49.956;8.636;2023-08-01T00:36:42;16.70;91.80
76099;DHT22;64828;49.956;8.636;2023-08-01T00:36:58;16.70;91.80
76099;DHT22;64828;49.956;8.636;2023-08-01T00:37:13;16.70;91.80
76099;DHT22;64828;49.956;8.636;2023-08-01T00:37:29;16.70;91.80
76099;DHT22;64828;49.956;8.636;2023-08-01T00:37:44;16.70;91.80
76099;DHT22;64828;49.956;8.636;2023-08-01T00:38:00;16.70;91.80
76099;DHT22;64828;49.956;8.636;2023-08-01T00:38:15;16.70;91.80
76099;DHT22;64828;49.956;8.636;2023-08-01T00:38:31;16.70;91.80
76099;DHT22;64828;49.956;8.636;2023-08-01T00:38:46;16.70;91.80
76099;DHT22;64828;49.956;8.636;2023-08-01T00:39:02;16.70;91.70
76099;DHT22;64828;49.956;8.636;2023-08-01T00:39:18;16.70;91.80
76099;DHT22;64828;49.956;8.636;2023-08-01T00:39:33;16.70;91.80
76099;DHT22;64828;49.956;8.636;2023-08-01T00:39:49;16.70;91.80
76099;DHT22;64828;49.956;8.636;2023-08-01T00:40:05;16.70;91.80
76099;DHT22;64828;49.956;8.636;2023-08-01T00:40:20;16.70;91.80
76099;DHT22;64828;49.956;8.636;2023-08-01T00:40:36;16.70;91.80
76099;DHT22;64828;49.956;8.636;2023-08-01T00:40:51;16.70;91.80
76099;DHT22;64828;49.956;8.636;2023-08-01T00:41:07;16.70;91.80
76099;DHT22;64828;49.956;8.636;2023-08-01T00:41:22;16.70;91.80
76099;DHT22;64828;49.956;8.636;2023-08-01T00:41:38;16.70;91.80
76099;DHT22;64828;49.956;8.636;2023-08-01T00:41:53;16.70;91.80
76099;DHT22;64828;49.956;8.636;2023-08-01T00:42:09;16.70;91.80
76099;DHT22;64828;49.956;8.636;2023-08-01T00:42:24;16.70;91.80
76099;DHT22;64828;49.956;8.636;2023-08-01T00:42:39;16.70;91.80
76099;DHT22;64828;49.956;8.636;2023-08-01T00:42:55;16.70;91.80
76099;DHT22;64828;49.956;8.636;2023-08-01T00:43:12;16.70;91.80
76099;DHT22;64828;49.956;8.636;2023-08-01T00:43:27;16.70;91.80
76099;DHT22;64828;49.956;8.636;2023-08-01T00:43:42;16.60;91.80
76099;DHT22;64828;49.956;8.636;2023-08-01T00:43:58;16.70;91.80
76099;DHT22;64828;49.956;8.636;2023-08-01T00:44:13;16.70;91.90
76099;DHT22;64828;49.956;8.636;2023-08-01T00:44:29;16.70;91.90
76099;DHT22;64828;49.956;8.636;2023-08-01T00:44:44;16.70;91.90
76099;DHT22;64828;49.956;8.636;2023-08-01T00:45:02;16.60;91.90
76099;DHT22;64828;49.956;8.636;2023-08-01T00:45:18;16.70;92.00
76099;DHT22;64828;49.956;8.636;2023-08-01T00:45:33;16.70;92.00
76099;DHT22;64828;49.956;8.636;2023-08-01T00:45:49;16.70;92.00
76099;DHT22;64828;49.956;8.636;2023-08-01T00:46:05;16.70;92.00
76099;DHT22;64828;49.956;8.636;2023-08-01T00:46:21;16.60;92.00
76099;DHT22;64828;49.956;8.636;2023-08-01T00:46:37;16.70;92.10
76099;DHT22;64828;49.956;8.636;2023-08-01T00:46:52;16.60;92.10
76099;DHT22;64828;49.956;8.636;2023-08-01T00:47:08;16.70;92.10
76099;DHT22;64828;49.956;8.636;2023-08-01T00:47:24;16.60;92.10
76099;DHT22;64828;49.956;8.636;2023-08-01T00:47:40;16.60;92.10
76099;DHT22;64828;49.956;8.636;2023-08-01T00:47:56;16.60;92.10
76099;DHT22;64828;49.956;8.636;2023-08-01T00:48:12;16.60;92.10
76099;DHT22;64828;49.956;8.636;2023-08-01T00:48:28;16.60;92.10
76099;DHT22;64828;49.956;8.636;2023-08-01T00:48:44;16.70;92.20
76099;DHT22;64828;49.956;8.636;2023-08-01T00:49:00;16.60;92.20
76099;DHT22;64828;49.956;8.636;2023-08-01T00:49:16;16.60;92.20
76099;DHT22;64828;49.956;8.636;2023-08-01T00:49:32;16.60;92.20
76099;DHT22;64828;49.956;8.636;2023-08-01T00:49:48;16.60;92.20
76099;DHT22;64828;49.956;8.636;2023-08-01T00:50:04;16.60;92.20
76099;DHT22;64828;49.956;8.636;2023-08-01T00:50:20;16.60;92.20
76099;DHT22;64828;49.956;8.636;2023-08-01T00:50:38;16.60;92.20
76099;DHT22;64828;49.956;8.636;2023-08-01T00:50:54;16.60;92.20
76099;DHT22;64828;49.956;8.636;2023-08-01T00:51:11;16.60;92.30
76099;DHT22;64828;49.956;8.636;2023-08-01T00:51:27;16.60;92.30
76099;DHT22;64828;49.956;8.636;2023-08-01T00:51:44;16.60;92.30
76099;DHT22;64828;49.956;8.636;2023-08-01T00:52:00;16.60;92.30
76099;DHT22;64828;49.956;8.636;2023-08-01T00:52:16;16.60;92.30
76099;DHT22;64828;49.956;8.636;2023-08-01T00:52:32;16.60;92.40
76099;DHT22;64828;49.956;8.636;2023-08-01T00:52:49;16.60;92.40
76099;DHT22;64828;49.956;8.636;2023-08-01T00:53:05;16.60;92.40
76099;DHT22;64828;49.956;8.636;2023-08-01T00:53:21;16.60;92.40
76099;DHT22;64828;49.956;8.636;2023-08-01T00:53:37;16.60;92.40
76099;DHT22;64828;49.956;8.636;2023-08-01T00:53:53;16.50;92.40
76099;DHT22;64828;49.956;8.636;2023-08-01T00:54:08;16.60;92.40
76099;DHT22;64828;49.956;8.636;2023-08-01T00:54:25;16.60;92.30
76099;DHT22;64828;49.956;8.636;2023-08-01T00:54:40;16.60;92.30
76099;DHT22;64828;49.956;8.636;2023-08-01T00:54:56;16.60;92.30
76099;DHT22;64828;49.956;8.636;2023-08-01T00:55:11;16.60;92.30
76099;DHT22;64828;49.956;8.636;2023-08-01T00:55:29;16.60;92.40
76099;DHT22;64828;49.956;8.636;2023-08-01T00:55:45;16.60;92.30
76099;DHT22;64828;49.956;8.636;2023-08-01T00:56:01;16.60;92.30
76099;DHT22;64828;49.956;8.636;2023-08-01T00:56:17;16.60;92.30
76099;DHT22;64828;49.956;8.636;2023-08-01T00:56:33;16.50;92.30
76099;DHT22;64828;49.956;8.636;2023-08-01T00:56:49;16.60;92.30
76099;DHT22;64828;49.956;8.636;2023-08-01T00:57:05;16.50;92.30
76099;DHT22;64828;49.956;8.636;2023-08-01T00:57:21;16.60;92.40
76099;DHT22;64828;49.956;8.636;2023-08-01T00:57:36;16.60;92.40
76099;DHT22;64828;49.956;8.636;2023-08-01T00:57:52;16.50;92.30
76099;DHT22;64828;49.956;8.636;2023-08-01T00:58:08;16.60;92.30
76099;DHT22;64828;49.956;8.636;2023-08-01T00:58:24;16.60;92.30
76099;DHT22;64828;49.956;8.636;2023-08-01T00:58:39;16.60;92.40
76099;DHT22;64828;49.956;8.636;2023-08-01T00:58:55;16.60;92.30
76099;DHT22;64828;49.956;8.636;2023-08-01T00:59:11;16.60;92.30
76099;DHT22;64828;49.956;8.636;2023-08-01T00:59:27;16.60;92.30
76099;DHT22;64828;49.956;8.636;2023-08-01T00:59:42;16.50;92.30
76099;DHT22;64828;49.956;8.636;2023-08-01T00:59:58;16.60;92.30
76099;DHT22;64828;49.956;8.636;2023-08-01T01:00:14;16.60;92.30
76099;DHT22;64828;49.956;8.636;2023-08-01T01:00:29;16.60;92.40
76099;DHT22;64828;49.956;8.636;2023-08-01T01:00:46;16.60;92.40
76099;DHT22;64828;49.956;8.636;2023-08-01T01:01:02;16.60;92.40
76099;DHT22;64828;49.956;8.636;2023-08-01T01:01:18;16.60;92.40
76099;DHT22;64828;49.956;8.636;2023-08-01T01:01:35;16.60;92.40
76099;DHT22;64828;49.956;8.636;2023-08-01T01:01:50;16.50;92.40
76099;DHT22;64828;49.956;8.636;2023-08-01T01:02:06;16.60;92.40
76099;DHT22;64828;49.956;8.636;2023-08-01T01:02:21;16.60;92.40
76099;DHT22;64828;49.956;8.636;2023-08-01T01:02:37;16.60;92.40
76099;DHT22;64828;49.956;8.636;2023-08-01T01:02:53;16.60;92.40
76099;DHT22;64828;49.956;8.636;2023-08-01T01:03:08;16.60;92.40
76099;DHT22;64828;49.956;8.636;2023-08-01T01:03:24;16.60;92.40
76099;DHT22;64828;49.956;8.636;2023-08-01T01:03:39;16.60;92.40
76099;DHT22;64828;49.956;8.636;2023-08-01T01:03:55;16.60;92.40
76099;DHT22;64828;49.956;8.636;2023-08-01T01:04:11;16.60;92.40
76099;DHT22;64828;49.956;8.636;2023-08-01T01:04:27;16.60;92.40
76099;DHT22;64828;49.956;8.636;2023-08-01T01:04:43;16.60;92.40
76099;DHT22;64828;49.956;8.636;2023-08-01T01:04:58;16.60;92.40
76099;DHT22;64828;49.956;8.636;2023-08-01T01:05:14;16.60;92.40
76099;DHT22;64828;49.956;8.636;2023-08-01T01:05:36;16.50;92.40
76099;DHT22;64828;49.956;8.636;2023-08-01T01:06:09;16.60;92.40
76099;DHT22;64828;49.956;8.636;2023-08-01T01:06:37;16.60;92.40
76099;DHT22;64828;49.956;8.636;2023-08-01T01:07:05;16.50;92.40
76099;DHT22;64828;49.956;8.636;2023-08-01T01:07:22;16.50;92.40
76099;DHT22;64828;49.956;8.636;2023-08-01T01:07:39;16.50;92.30
76099;DHT22;64828;49.956;8.636;2023-08-01T01:07:55;16.60;92.20
76099;DHT22;64828;49.956;8.636;2023-08-01T01:08:11;16.50;92.20
76099;DHT22;64828;49.956;8.636;2023-08-01T01:08:26;16.50;92.20
76099;DHT22;64828;49.956;8.636;2023-08-01T01:08:42;16.60;92.20
76099;DHT22;64828;49.956;8.636;2023-08-01T01:08:57;16.50;92.20
76099;DHT22;64828;49.956;8.636;2023-08-01T01:09:19;16.50;92.10
76099;DHT22;64828;49.956;8.636;2023-08-01T01:09:35;16.50;92.10
76099;DHT22;64828;49.956;8.636;2023-08-01T01:09:50;16.50;92.10
76099;DHT22;64828;49.956;8.636;2023-08-01T01:10:06;16.50;92.10
76099;DHT22;64828;49.956;8.636;2023-08-01T01:10:22;16.50;92.10
76099;DHT22;64828;49.956;8.636;2023-08-01T01:10:37;16.50;92.00
76099;DHT22;64828;49.956;8.636;2023-08-01T01:10:53;16.50;92.00
76099;DHT22;64828;49.956;8.636;2023-08-01T01:11:08;16.50;92.00
76099;DHT22;64828;49.956;8.636;2023-08-01T01:11:24;16.50;92.00
76099;DHT22;64828;49.956;8.636;2023-08-01T01:11:39;16.50;92.00
76099;DHT22;64828;49.956;8.636;2023-08-01T01:11:55;16.50;92.00
76099;DHT22;64828;49.956;8.636;2023-08-01T01:12:10;16.50;92.00
76099;DHT22;64828;49.956;8.636;2023-08-01T01:12:26;16.50;92.00
76099;DHT22;64828;49.956;8.636;2023-08-01T01:12:41;16.50;92.00
76099;DHT22;64828;49.956;8.636;2023-08-01T01:12:57;16.50;92.00
76099;DHT22;64828;49.956;8.636;2023-08-01T01:13:12;16.50;92.00
76099;DHT22;64828;49.956;8.636;2023-08-01T01:13:28;16.50;92.10
76099;DHT22;64828;49.956;8.636;2023-08-01T01:13:43;16.50;92.10
76099;DHT22;64828;49.956;8.636;2023-08-01T01:13:58;16.50;92.10
76099;DHT22;64828;49.956;8.636;2023-08-01T01:14:14;16.50;92.10
76099;DHT22;64828;49.956;8.636;2023-08-01T01:14:29;16.50;92.10
76099;DHT22;64828;49.956;8.636;2023-08-01T01:14:45;16.50;92.10
76099;DHT22;64828;49.956;8.636;2023-08-01T01:15:00;16.50;92.10
76099;DHT22;64828;49.956;8.636;2023-08-01T01:15:16;16.50;92.10
76099;DHT22;64828;49.956;8.636;2023-08-01T01:15:31;16.50;92.20
76099;DHT22;64828;49.956;8.636;2023-08-01T01:15:47;16.50;92.20
76099;DHT22;64828;49.956;8.636;2023-08-01T01:16:02;16.50;92.20
76099;DHT22;64828;49.956;8.636;2023-08-01T01:16:19;16.50;92.20
76099;DHT22;64828;49.956;8.636;2023-08-01T01:16:35;16.50;92.20
76099;DHT22;64828;49.956;8.636;2023-08-01T01:16:50;16.50;92.20
76099;DHT22;64828;49.956;8.636;2023-08-01T01:17:07;16.50;92.20
76099;DHT22;64828;49.956;8.636;2023-08-01T01:17:22;16.50;92.20
76099;DHT22;64828;49.956;8.636;2023-08-01T01:17:38;16.50;92.20
76099;DHT22;64828;49.956;8.636;2023-08-01T01:17:53;16.50;92.30
76099;DHT22;64828;49.956;8.636;2023-08-01T01:18:09;16.50;92.30
76099;DHT22;64828;49.956;8.636;2023-08-01T01:18:24;16.50;92.30
76099;DHT22;64828;49.956;8.636;2023-08-01T01:18:40;16.50;92.30
76099;DHT22;64828;49.956;8.636;2023-08-01T01:18:56;16.50;92.30
76099;DHT22;64828;49.956;8.636;2023-08-01T01:19:11;16.50;92.30
76099;DHT22;64828;49.956;8.636;2023-08-01T01:19:27;16.50;92.30
76099;DHT22;64828;49.956;8.636;2023-08-01T01:19:42;16.50;92.30
76099;DHT22;64828;49.956;8.636;2023-08-01T01:19:58;16.50;92.30
76099;DHT22;64828;49.956;8.636;2023-08-01T01:20:14;16.50;92.30
76099;DHT22;64828;49.956;8.636;2023-08-01T01:20:33;16.50;92.40
76099;DHT22;64828;49.956;8.636;2023-08-01T01:20:49;16.50;92.30
76099;DHT22;64828;49.956;8.636;2023-08-01T01:22:17;16.50;92.40
76099;DHT22;64828;49.956;8.636;2023-08-01T01:22:33;16.50;92.40
76099;DHT22;64828;49.956;8.636;2023-08-01T01:22:52;16.50;92.40
76099;DHT22;64828;49.956;8.636;2023-08-01T01:23:09;16.50;92.40
76099;DHT22;64828;49.956;8.636;2023-08-01T01:23:26;16.50;92.40
76099;DHT22;64828;49.956;8.636;2023-08-01T01:23:43;16.50;92.40
76099;DHT22;64828;49.956;8.636;2023-08-01T01:23:59;16.50;92.40
76099;DHT22;64828;49.956;8.636;2023-08-01T01:24:16;16.50;92.40
76099;DHT22;64828;49.956;8.636;2023-08-01T01:24:34;16.50;92.50
76099;DHT22;64828;49.956;8.636;2023-08-01T01:24:50;16.50;92.50
76099;DHT22;64828;49.956;8.636;2023-08-01T01:25:07;16.50;92.40
76099;DHT22;64828;49.956;8.636;2023-08-01T01:25:24;16.50;92.50
76099;DHT22;64828;49.956;8.636;2023-08-01T01:25:41;16.50;92.50
76099;DHT22;64828;49.956;8.636;2023-08-01T01:25:57;16.50;92.50
76099;DHT22;64828;49.956;8.636;2023-08-01T01:26:13;16.50;92.50
76099;DHT22;64828;49.956;8.636;2023-08-01T01:26:33;16.50;92.50
76099;DHT22;64828;49.956;8.636;2023-08-01T01:26:49;16.50;92.50
76099;DHT22;64828;49.956;8.636;2023-08-01T01:27:06;16.50;92.50
76099;DHT22;64828;49.956;8.636;2023-08-01T01:27:23;16.50;92.50
76099;DHT22;64828;49.956;8.636;2023-08-01T01:27:39;16.50;92.50
76099;DHT22;64828;49.956;8.636;2023-08-01T01:27:55;16.50;92.50
76099;DHT22;64828;49.956;8.636;2023-08-01T01:28:12;16.50;92.50
76099;DHT22;64828;49.956;8.636;2023-08-01T01:28:28;16.50;92.50
76099;DHT22;64828;49.956;8.636;2023-08-01T01:28:44;16.50;92.50
76099;DHT22;64828;49.956;8.636;2023-08-01T01:29:02;16.50;92.50
76099;DHT22;64828;49.956;8.636;2023-08-01T01:29:18;16.50;92.50
76099;DHT22;64828;49.956;8.636;2023-08-01T01:29:35;16.50;92.50
76099;DHT22;64828;49.956;8.636;2023-08-01T01:29:52;16.50;92.50
76099;DHT22;64828;49.956;8.636;2023-08-01T01:30:09;16.50;92.50
76099;DHT22;64828;49.956;8.636;2023-08-01T01:30:25;16.50;92.60
76099;DHT22;64828;49.956;8.636;2023-08-01T01:30:42;16.50;92.50
76099;DHT22;64828;49.956;8.636;2023-08-01T01:30:58;16.50;92.50
76099;DHT22;64828;49.956;8.636;2023-08-01T01:31:15;16.50;92.50
76099;DHT22;64828;49.956;8.636;2023-08-01T01:31:32;16.50;92.60
76099;DHT22;64828;49.956;8.636;2023-08-01T01:31:48;16.50;92.50
76099;DHT22;64828;49.956;8.636;2023-08-01T01:32:05;16.50;92.60
76099;DHT22;64828;49.956;8.636;2023-08-01T01:32:21;16.50;92.60
76099;DHT22;64828;49.956;8.636;2023-08-01T01:32:37;16.50;92.50
76099;DHT22;64828;49.956;8.636;2023-08-01T01:32:53;16.50;92.60
76099;DHT22;64828;49.956;8.636;2023-08-01T01:33:09;16.50;92.60
76099;DHT22;64828;49.956;8.636;2023-08-01T01:33:25;16.50;92.60
76099;DHT22;64828;49.956;8.636;2023-08-01T01:33:41;16.50;92.50
76099;DHT22;64828;49.956;8.636;2023-08-01T01:33:56;16.50;92.60
76099;DHT22;64828;49.956;8.636;2023-08-01T01:34:12;16.50;92.60
76099;DHT22;64828;49.956;8.636;2023-08-01T01:34:28;16.50;92.60
76099;DHT22;64828;49.956;8.636;2023-08-01T01:34:44;16.50;92.60
76099;DHT22;64828;49.956;8.636;2023-08-01T01:35:02;16.60;92.60
76099;DHT22;64828;49.956;8.636;2023-08-01T01:35:18;16.50;92.60
76099;DHT22;64828;49.956;8.636;2023-08-01T01:35:34;16.50;92.60
76099;DHT22;64828;49.956;8.636;2023-08-01T01:35:50;16.60;92.60
76099;DHT22;64828;49.956;8.636;2023-08-01T01:36:05;16.50;92.60
76099;DHT22;64828;49.956;8.636;2023-08-01T01:36:21;16.50;92.60
76099;DHT22;64828;49.956;8.636;2023-08-01T01:36:36;16.50;92.60
76099;DHT22;64828;49.956;8.636;2023-08-01T01:36:52;16.50;92.60
76099;DHT22;64828;49.956;8.636;2023-08-01T01:37:07;16.60;92.60
76099;DHT22;64828;49.956;8.636;2023-08-01T01:37:22;16.50;92.60
76099;DHT22;64828;49.956;8.636;2023-08-01T01:37:38;16.60;92.60
76099;DHT22;64828;49.956;8.636;2023-08-01T01:37:53;16.60;92.60
76099;DHT22;64828;49.956;8.636;2023-08-01T01:38:09;16.50;92.60
76099;DHT22;64828;49.956;8.636;2023-08-01T01:38:24;16.50;92.60
76099;DHT22;64828;49.956;8.636;2023-08-01T01:38:40;16.50;92.60
76099;DHT22;64828;49.956;8.636;2023-08-01T01:38:55;16.50;92.60
76099;DHT22;64828;49.956;8.636;2023-08-01T01:39:11;16.50;92.60
76099;DHT22;64828;49.956;8.636;2023-08-01T01:39:26;16.60;92.60
76099;DHT22;64828;49.956;8.636;2023-08-01T01:39:42;16.50;92.60
76099;DHT22;64828;49.956;8.636;2023-08-01T01:39:57;16.60;92.60
76099;DHT22;64828;49.956;8.636;2023-08-01T01:40:13;16.60;92.60
76099;DHT22;64828;49.956;8.636;2023-08-01T01:40:29;16.60;92.60
76099;DHT22;64828;49.956;8.636;2023-08-01T01:40:44;16.50;92.60
76099;DHT22;64828;49.956;8.636;2023-08-01T01:41:00;16.60;92.60
76099;DHT22;64828;49.956;8.636;2023-08-01T01:41:15;16.60;92.60
76099;DHT22;64828;49.956;8.636;2023-08-01T01:41:31;16.60;92.60
76099;DHT22;64828;49.956;8.636;2023-08-01T01:41:46;16.60;92.60
76099;DHT22;64828;49.956;8.636;2023-08-01T01:42:02;16.60;92.60